sensor_id;sensor_type;location;lat;lon;timestamp;temperature;humidity
62476;DHT22;50739;45.670;11.936;2023-12-29T00:02:29;7.55;91.37
62476;DHT22;50739;45.670;11.936;2023-12-29T00:07:31;7.61;91.62
62476;DHT22;50739;45.670;11.936;2023-12-29T00:12:35;7.44;91.28
62476;DHT22;50739;45.670;11.936;2023-12-29T00:17:37;7.31;91.27
62476;DHT22;50739;45.670;11.936;2023-12-29T00:22:41;7.25;91.40
62476;DHT22;50739;45.670;11.936;2023-12-29T00:27:45;7.27;91.10
62476;DHT22;50739;45.670;11.936;2023-12-29T00:32:47;7.11;91.53
62476;DHT22;50739;45.670;11.936;2023-12-29T00:37:50;7.00;91.46
62476;DHT22;50739;45.670;11.936;2023-12-29T00:42:54;7.00;91.24
62476;DHT22;50739;45.670;11.936;2023-12-29T00:47:57;6.91;91.74
62476;DHT22;50739;45.670;11.936;2023-12-29T00:52:59;6.68;91.95
62476;DHT22;50739;45.670;11.936;2023-12-29T00:58:03;6.81;91.73
62476;DHT22;50739;45.670;11.936;2023-12-29T01:03:06;6.70;91.80
62476;DHT22;50739;45.670;11.936;2023-12-29T01:08:08;6.54;92.10
62476;DHT22;50739;45.670;11.936;2023-12-29T01:13:12;6.68;92.14
62476;DHT22;50739;45.670;11.936;2023-12-29T01:18:14;6.72;91.76
62476;DHT22;50739;45.670;11.936;2023-12-29T01:23:17;6.70;91.51
62476;DHT22;50739;45.670;11.936;2023-12-29T01:28:21;6.70;91.90
62476;DHT22;50739;45.670;11.936;2023-12-29T01:33:23;6.65;91.86
62476;DHT22;50739;45.670;11.936;2023-12-29T01:38:25;6.62;91.74
62476;DHT22;50739;45.670;11.936;2023-12-29T01:43:29;6.60;91.32
62476;DHT22;50739;45.670;11.936;2023-12-29T01:48:32;6.41;91.33
62476;DHT22;50739;45.670;11.936;2023-12-29T01:53:34;6.24;91.31
62476;DHT22;50739;45.670;11.936;2023-12-29T01:58:38;6.32;91.48
62476;DHT22;50739;45.670;11.936;2023-12-29T02:03:40;6.18;91.47
62476;DHT22;50739;45.670;11.936;2023-12-29T02:08:44;6.34;91.37
62476;DHT22;50739;45.670;11.936;2023-12-29T02:13:48;6.18;91.50
62476;DHT22;50739;45.670;11.936;2023-12-29T02:18:50;6.01;91.35
62476;DHT22;50739;45.670;11.936;2023-12-29T02:23:53;6.07;91.32
62476;DHT22;50739;45.670;11.936;2023-12-29T02:29:00;5.97;91.53
62476;DHT22;50739;45.670;11.936;2023-12-29T02:34:05;5.98;91.70
62476;DHT22;50739;45.670;11.936;2023-12-29T02:39:09;6.01;92.28
62476;DHT22;50739;45.670;11.936;2023-12-29T02:44:13;6.01;91.63
62476;DHT22;50739;45.670;11.936;2023-12-29T02:49:15;5.83;92.30
62476;DHT22;50739;45.670;11.936;2023-12-29T02:54:18;5.65;92.18
62476;DHT22;50739;45.670;11.936;2023-12-29T03:42:22;5.76;90.27
62476;DHT22;50739;45.670;11.936;2023-12-29T03:47:24;5.69;90.37
62476;DHT22;50739;45.670;11.936;2023-12-29T03:52:26;5.29;90.82
62476;DHT22;50739;45.670;11.936;2023-12-29T03:57:30;5.38;90.97
62476;DHT22;50739;45.670;11.936;2023-12-29T04:02:33;5.25;90.70
62476;DHT22;50739;45.670;11.936;2023-12-29T04:07:35;5.39;90.71
62476;DHT22;50739;45.670;11.936;2023-12-29T04:12:39;5.32;90.11
62476;DHT22;50739;45.670;11.936;2023-12-29T04:17:41;5.17;90.74
62476;DHT22;50739;45.670;11.936;2023-12-29T04:22:44;5.17;91.46
62476;DHT22;50739;45.670;11.936;2023-12-29T04:27:48;5.29;91.13
62476;DHT22;50739;45.670;11.936;2023-12-29T04:32:50;5.08;90.69
62476;DHT22;50739;45.670;11.936;2023-12-29T04:37:53;5.15;90.87
62476;DHT22;50739;45.670;11.936;2023-12-29T04:42:56;4.91;90.87
62476;DHT22;50739;45.670;11.936;2023-12-29T04:47:59;5.20;90.79
62476;DHT22;50739;45.670;11.936;2023-12-29T04:53:01;5.31;89.79
62476;DHT22;50739;45.670;11.936;2023-12-29T04:58:05;4.83;91.05
62476;DHT22;50739;45.670;11.936;2023-12-29T05:03:07;5.05;91.26
62476;DHT22;50739;45.670;11.936;2023-12-29T05:08:10;5.18;90.21
62476;DHT22;50739;45.670;11.936;2023-12-29T05:13:14;5.21;89.90
62476;DHT22;50739;45.670;11.936;2023-12-29T05:18:16;4.85;90.76
62476;DHT22;50739;45.670;11.936;2023-12-29T05:23:18;4.97;90.09
62476;DHT22;50739;45.670;11.936;2023-12-29T05:28:22;4.95;90.31
62476;DHT22;50739;45.670;11.936;2023-12-29T05:33:24;4.83;89.98
62476;DHT22;50739;45.670;11.936;2023-12-29T05:38:27;4.76;90.70
62476;DHT22;50739;45.670;11.936;2023-12-29T05:43:31;4.83;89.89
62476;DHT22;50739;45.670;11.936;2023-12-29T05:48:34;4.48;90.06
62476;DHT22;50739;45.670;11.936;2023-12-29T05:53:37;4.55;91.46
62476;DHT22;50739;45.670;11.936;2023-12-29T05:58:43;4.70;90.36
62476;DHT22;50739;45.670;11.936;2023-12-29T06:03:45;4.63;90.90
62476;DHT22;50739;45.670;11.936;2023-12-29T06:08:47;4.57;90.51
62476;DHT22;50739;45.670;11.936;2023-12-29T06:13:51;4.48;91.16
62476;DHT22;50739;45.670;11.936;2023-12-29T06:18:53;4.59;90.62
62476;DHT22;50739;45.670;11.936;2023-12-29T06:23:55;4.57;90.93
62476;DHT22;50739;45.670;11.936;2023-12-29T06:28:59;4.52;90.37
62476;DHT22;50739;45.670;11.936;2023-12-29T06:34:02;4.41;90.69
62476;DHT22;50739;45.670;11.936;2023-12-29T06:39:04;4.42;90.84
62476;DHT22;50739;45.670;11.936;2023-12-29T06:44:08;4.49;90.74
62476;DHT22;50739;45.670;11.936;2023-12-29T06:49:11;4.57;90.72
62476;DHT22;50739;45.670;11.936;2023-12-29T06:54:14;4.46;91.05
62476;DHT22;50739;45.670;11.936;2023-12-29T06:59:17;4.63;90.88
62476;DHT22;50739;45.670;11.936;2023-12-29T07:04:20;4.73;90.15
62476;DHT22;50739;45.670;11.936;2023-12-29T07:09:23;4.74;90.07
62476;DHT22;50739;45.670;11.936;2023-12-29T07:14:26;4.63;90.26
62476;DHT22;50739;45.670;11.936;2023-12-29T07:19:29;4.66;90.35
62476;DHT22;50739;45.670;11.936;2023-12-29T07:24:37;4.53;91.55
62476;DHT22;50739;45.670;11.936;2023-12-29T07:29:43;4.56;90.96
62476;DHT22;50739;45.670;11.936;2023-12-29T07:34:45;4.69;90.17
62476;DHT22;50739;45.670;11.936;2023-12-29T07:39:47;4.74;90.53
62476;DHT22;50739;45.670;11.936;2023-12-29T07:44:51;4.48;91.10
62476;DHT22;50739;45.670;11.936;2023-12-29T07:49:56;4.76;90.43
62476;DHT22;50739;45.670;11.936;2023-12-29T07:54:58;4.85;90.43
62476;DHT22;50739;45.670;11.936;2023-12-29T08:00:03;4.95;90.26
62476;DHT22;50739;45.670;11.936;2023-12-29T08:05:07;5.02;89.90
62476;DHT22;50739;45.670;11.936;2023-12-29T08:10:10;4.87;90.28
62476;DHT22;50739;45.670;11.936;2023-12-29T08:15:14;4.90;90.63
62476;DHT22;50739;45.670;11.936;2023-12-29T08:20:16;5.14;89.78
62476;DHT22;50739;45.670;11.936;2023-12-29T08:25:19;5.32;89.74
62476;DHT22;50739;45.670;11.936;2023-12-29T08:30:23;5.31;89.23
62476;DHT22;50739;45.670;11.936;2023-12-29T08:35:25;5.52;89.44
62476;DHT22;50739;45.670;11.936;2023-12-29T08:40:28;5.70;89.00
62476;DHT22;50739;45.670;11.936;2023-12-29T08:45:31;5.80;88.45
62476;DHT22;50739;45.670;11.936;2023-12-29T08:50:34;5.83;88.07
62476;DHT22;50739;45.670;11.936;2023-12-29T08:55:36;5.90;88.73
62476;DHT22;50739;45.670;11.936;2023-12-29T09:00:40;6.07;89.02
62476;DHT22;50739;45.670;11.936;2023-12-29T09:05:42;6.18;88.65
62476;DHT22;50739;45.670;11.936;2023-12-29T09:10:45;6.28;88.87
62476;DHT22;50739;45.670;11.936;2023-12-29T09:15:49;6.43;89.34
62476;DHT22;50739;45.670;11.936;2023-12-29T09:20:51;6.49;89.53
62476;DHT22;50739;45.670;11.936;2023-12-29T09:25:53;6.53;89.24
62476;DHT22;50739;45.670;11.936;2023-12-29T09:30:57;6.60;89.16
62476;DHT22;50739;45.670;11.936;2023-12-29T09:36:01;6.76;88.94
62476;DHT22;50739;45.670;11.936;2023-12-29T09:41:05;6.86;88.49
62476;DHT22;50739;45.670;11.936;2023-12-29T09:46:14;6.89;89.08
62476;DHT22;50739;45.670;11.936;2023-12-29T09:51:19;6.96;89.11
62476;DHT22;50739;45.670;11.936;2023-12-29T09:56:24;7.21;88.94
62476;DHT22;50739;45.670;11.936;2023-12-29T10:01:28;7.29;88.21
62476;DHT22;50739;45.670;11.936;2023-12-29T10:06:35;7.36;87.66
62476;DHT22;50739;45.670;11.936;2023-12-29T10:11:40;7.49;87.34
62476;DHT22;50739;45.670;11.936;2023-12-29T10:16:51;7.54;87.03
62476;DHT22;50739;45.670;11.936;2023-12-29T10:21:59;7.59;87.20
62476;DHT22;50739;45.670;11.936;2023-12-29T10:27:05;7.56;87.12
62476;DHT22;50739;45.670;11.936;2023-12-29T10:32:09;7.67;86.29
62476;DHT22;50739;45.670;11.936;2023-12-29T10:37:11;7.73;86.71
62476;DHT22;50739;45.670;11.936;2023-12-29T10:42:20;7.80;87.03
62476;DHT22;50739;45.670;11.936;2023-12-29T10:47:24;7.91;86.30
62476;DHT22;50739;45.670;11.936;2023-12-29T10:52:26;7.95;86.46
62476;DHT22;50739;45.670;11.936;2023-12-29T10:57:29;8.10;86.17
62476;DHT22;50739;45.670;11.936;2023-12-29T11:02:32;8.10;86.79
62476;DHT22;50739;45.670;11.936;2023-12-29T11:07:36;8.12;86.89
62476;DHT22;50739;45.670;11.936;2023-12-29T11:12:40;8.08;86.38
62476;DHT22;50739;45.670;11.936;2023-12-29T11:17:44;8.12;86.71
62476;DHT22;50739;45.670;11.936;2023-12-29T11:22:50;8.12;85.12
62476;DHT22;50739;45.670;11.936;2023-12-29T11:27:53;8.21;85.30
62476;DHT22;50739;45.670;11.936;2023-12-29T11:33:01;8.27;84.84
62476;DHT22;50739;45.670;11.936;2023-12-29T11:38:26;8.27;85.31
62476;DHT22;50739;45.670;11.936;2023-12-29T11:43:31;8.35;85.38
62476;DHT22;50739;45.670;11.936;2023-12-29T11:48:57;8.48;84.42
62476;DHT22;50739;45.670;11.936;2023-12-29T11:54:01;8.55;85.01
62476;DHT22;50739;45.670;11.936;2023-12-29T11:59:16;8.62;84.80
62476;DHT22;50739;45.670;11.936;2023-12-29T12:04:51;8.66;83.81
62476;DHT22;50739;45.670;11.936;2023-12-29T12:10:29;8.65;83.22
62476;DHT22;50739;45.670;11.936;2023-12-29T12:15:34;8.60;82.50
62476;DHT22;50739;45.670;11.936;2023-12-29T12:20:38;8.66;82.69
62476;DHT22;50739;45.670;11.936;2023-12-29T12:25:41;8.77;83.37
62476;DHT22;50739;45.670;11.936;2023-12-29T12:30:44;8.90;83.12
62476;DHT22;50739;45.670;11.936;2023-12-29T12:35:58;9.06;82.51
62476;DHT22;50739;45.670;11.936;2023-12-29T12:41:09;9.00;81.83
62476;DHT22;50739;45.670;11.936;2023-12-29T12:46:14;9.07;82.41
62476;DHT22;50739;45.670;11.936;2023-12-29T12:51:19;9.11;81.76
62476;DHT22;50739;45.670;11.936;2023-12-29T12:56:21;9.07;81.45
62476;DHT22;50739;45.670;11.936;2023-12-29T13:01:28;9.03;82.35
62476;DHT22;50739;45.670;11.936;2023-12-29T13:06:34;9.17;82.95
62476;DHT22;50739;45.670;11.936;2023-12-29T13:11:36;9.15;83.50
62476;DHT22;50739;45.670;11.936;2023-12-29T13:16:39;9.11;83.36
62476;DHT22;50739;45.670;11.936;2023-12-29T13:21:45;9.15;83.65
62476;DHT22;50739;45.670;11.936;2023-12-29T13:26:52;9.18;83.87
62476;DHT22;50739;45.670;11.936;2023-12-29T13:31:59;9.17;83.55
62476;DHT22;50739;45.670;11.936;2023-12-29T13:37:08;9.08;84.16
62476;DHT22;50739;45.670;11.936;2023-12-29T13:42:14;9.18;83.96
62476;DHT22;50739;45.670;11.936;2023-12-29T13:47:18;9.13;83.91
62476;DHT22;50739;45.670;11.936;2023-12-29T13:52:23;9.15;83.98
62476;DHT22;50739;45.670;11.936;2023-12-29T13:57:30;9.23;84.46
62476;DHT22;50739;45.670;11.936;2023-12-29T14:02:35;9.31;84.51
62476;DHT22;50739;45.670;11.936;2023-12-29T14:07:46;9.25;84.79
62476;DHT22;50739;45.670;11.936;2023-12-29T14:12:49;9.35;84.36
62476;DHT22;50739;45.670;11.936;2023-12-29T14:17:59;9.36;84.29
62476;DHT22;50739;45.670;11.936;2023-12-29T14:23:04;9.36;83.77
62476;DHT22;50739;45.670;11.936;2023-12-29T14:28:14;9.39;83.74
62476;DHT22;50739;45.670;11.936;2023-12-29T14:33:17;9.31;83.96
62476;DHT22;50739;45.670;11.936;2023-12-29T14:38:21;9.20;83.82
62476;DHT22;50739;45.670;11.936;2023-12-29T14:43:25;9.28;83.54
62476;DHT22;50739;45.670;11.936;2023-12-29T14:48:27;9.21;82.02
62476;DHT22;50739;45.670;11.936;2023-12-29T14:53:33;9.20;82.48
62476;DHT22;50739;45.670;11.936;2023-12-29T14:58:36;9.18;82.42
62476;DHT22;50739;45.670;11.936;2023-12-29T15:03:38;9.28;81.91
62476;DHT22;50739;45.670;11.936;2023-12-29T15:08:42;9.17;82.85
62476;DHT22;50739;45.670;11.936;2023-12-29T15:13:44;9.13;83.20
62476;DHT22;50739;45.670;11.936;2023-12-29T15:18:47;9.13;83.33
62476;DHT22;50739;45.670;11.936;2023-12-29T15:23:50;9.15;83.54
62476;DHT22;50739;45.670;11.936;2023-12-29T15:28:53;9.03;83.49
62476;DHT22;50739;45.670;11.936;2023-12-29T15:33:56;9.08;83.69
62476;DHT22;50739;45.670;11.936;2023-12-29T15:39:00;9.11;83.38
62476;DHT22;50739;45.670;11.936;2023-12-29T15:44:02;9.17;83.96
62476;DHT22;50739;45.670;11.936;2023-12-29T15:49:07;9.28;84.25
62476;DHT22;50739;45.670;11.936;2023-12-29T15:54:11;9.20;84.75
62476;DHT22;50739;45.670;11.936;2023-12-29T15:59:13;9.08;84.88
62476;DHT22;50739;45.670;11.936;2023-12-29T16:04:15;8.97;86.54
62476;DHT22;50739;45.670;11.936;2023-12-29T16:09:19;8.96;85.74
62476;DHT22;50739;45.670;11.936;2023-12-29T16:14:22;8.83;86.94
62476;DHT22;50739;45.670;11.936;2023-12-29T16:19:24;8.81;86.34
62476;DHT22;50739;45.670;11.936;2023-12-29T16:24:28;8.86;85.74
62476;DHT22;50739;45.670;11.936;2023-12-29T16:29:31;8.75;86.17
62476;DHT22;50739;45.670;11.936;2023-12-29T16:34:33;8.66;85.12
62476;DHT22;50739;45.670;11.936;2023-12-29T16:39:39;8.73;85.99
62476;DHT22;50739;45.670;11.936;2023-12-29T16:44:42;8.68;85.23
62476;DHT22;50739;45.670;11.936;2023-12-29T16:49:44;8.79;85.29
62476;DHT22;50739;45.670;11.936;2023-12-29T16:54:48;8.86;84.98
62476;DHT22;50739;45.670;11.936;2023-12-29T16:59:51;8.75;85.71
62476;DHT22;50739;45.670;11.936;2023-12-29T17:04:55;8.65;86.38
62476;DHT22;50739;45.670;11.936;2023-12-29T17:09:59;8.56;87.00
62476;DHT22;50739;45.670;11.936;2023-12-29T17:15:02;8.52;87.59
62476;DHT22;50739;45.670;11.936;2023-12-29T17:20:06;8.50;87.92
62476;DHT22;50739;45.670;11.936;2023-12-29T17:25:10;8.53;88.49
62476;DHT22;50739;45.670;11.936;2023-12-29T17:30:13;8.48;88.33
62476;DHT22;50739;45.670;11.936;2023-12-29T17:35:16;8.48;88.62
62476;DHT22;50739;45.670;11.936;2023-12-29T17:40:25;8.27;88.65
62476;DHT22;50739;45.670;11.936;2023-12-29T17:45:28;8.35;88.64
62476;DHT22;50739;45.670;11.936;2023-12-29T17:50:30;8.31;88.65
62476;DHT22;50739;45.670;11.936;2023-12-29T17:55:34;8.35;88.62
62476;DHT22;50739;45.670;11.936;2023-12-29T18:00:36;8.38;88.98
62476;DHT22;50739;45.670;11.936;2023-12-29T18:05:39;8.41;88.21
62476;DHT22;50739;45.670;11.936;2023-12-29T18:10:44;8.49;88.18
62476;DHT22;50739;45.670;11.936;2023-12-29T18:15:48;8.52;88.32
62476;DHT22;50739;45.670;11.936;2023-12-29T18:20:51;8.46;88.15
62476;DHT22;50739;45.670;11.936;2023-12-29T18:25:55;8.55;87.31
62476;DHT22;50739;45.670;11.936;2023-12-29T18:30:58;8.55;87.54
62476;DHT22;50739;45.670;11.936;2023-12-29T18:36:05;8.63;87.19
62476;DHT22;50739;45.670;11.936;2023-12-29T18:41:09;8.46;88.74
62476;DHT22;50739;45.670;11.936;2023-12-29T18:46:13;8.45;89.05
62476;DHT22;50739;45.670;11.936;2023-12-29T18:51:16;8.37;89.25
62476;DHT22;50739;45.670;11.936;2023-12-29T18:56:20;8.48;88.72
62476;DHT22;50739;45.670;11.936;2023-12-29T19:01:22;8.50;88.80
62476;DHT22;50739;45.670;11.936;2023-12-29T19:06:25;8.50;88.85
62476;DHT22;50739;45.670;11.936;2023-12-29T19:11:29;8.38;89.23
62476;DHT22;50739;45.670;11.936;2023-12-29T19:16:31;8.30;89.70
62476;DHT22;50739;45.670;11.936;2023-12-29T19:21:33;8.41;89.53
62476;DHT22;50739;45.670;11.936;2023-12-29T19:26:41;8.49;89.25
62476;DHT22;50739;45.670;11.936;2023-12-29T19:31:44;8.53;88.85
62476;DHT22;50739;45.670;11.936;2023-12-29T19:36:46;8.62;88.47
62476;DHT22;50739;45.670;11.936;2023-12-29T19:41:50;8.52;88.85
62476;DHT22;50739;45.670;11.936;2023-12-29T19:46:52;8.45;90.05
62476;DHT22;50739;45.670;11.936;2023-12-29T19:51:55;8.50;89.48
62476;DHT22;50739;45.670;11.936;2023-12-29T19:57:00;8.55;89.30
62476;DHT22;50739;45.670;11.936;2023-12-29T20:02:03;8.68;88.52
62476;DHT22;50739;45.670;11.936;2023-12-29T20:07:05;8.70;88.05
62476;DHT22;50739;45.670;11.936;2023-12-29T20:12:09;8.63;87.63
62476;DHT22;50739;45.670;11.936;2023-12-29T20:17:11;8.63;87.47
62476;DHT22;50739;45.670;11.936;2023-12-29T20:22:14;8.44;87.87
62476;DHT22;50739;45.670;11.936;2023-12-29T20:27:17;8.17;88.25
62476;DHT22;50739;45.670;11.936;2023-12-29T20:32:20;8.32;88.15
62476;DHT22;50739;45.670;11.936;2023-12-29T20:37:22;8.44;87.92
62476;DHT22;50739;45.670;11.936;2023-12-29T20:42:26;8.39;88.67
62476;DHT22;50739;45.670;11.936;2023-12-29T20:47:28;8.48;87.95
62476;DHT22;50739;45.670;11.936;2023-12-29T20:52:31;8.24;88.71
62476;DHT22;50739;45.670;11.936;2023-12-29T20:57:35;8.20;89.37
62476;DHT22;50739;45.670;11.936;2023-12-29T21:02:37;8.12;89.57
62476;DHT22;50739;45.670;11.936;2023-12-29T21:07:43;8.24;88.90
62476;DHT22;50739;45.670;11.936;2023-12-29T21:12:48;8.41;88.69
62476;DHT22;50739;45.670;11.936;2023-12-29T21:18:01;8.58;87.89
62476;DHT22;50739;45.670;11.936;2023-12-29T21:23:08;8.72;87.24
62476;DHT22;50739;45.670;11.936;2023-12-29T21:28:12;8.50;87.64
62476;DHT22;50739;45.670;11.936;2023-12-29T21:33:14;8.58;87.77
62476;DHT22;50739;45.670;11.936;2023-12-29T21:38:17;8.60;88.27
62476;DHT22;50739;45.670;11.936;2023-12-29T21:43:20;8.69;87.52
62476;DHT22;50739;45.670;11.936;2023-12-29T21:48:23;8.65;87.90
62476;DHT22;50739;45.670;11.936;2023-12-29T21:53:25;8.49;88.27
62476;DHT22;50739;45.670;11.936;2023-12-29T21:58:29;8.56;88.27
62476;DHT22;50739;45.670;11.936;2023-12-29T22:03:34;8.72;87.91
62476;DHT22;50739;45.670;11.936;2023-12-29T22:08:39;8.72;87.47
62476;DHT22;50739;45.670;11.936;2023-12-29T22:13:43;8.56;88.60
62476;DHT22;50739;45.670;11.936;2023-12-29T22:18:45;8.69;88.96
62476;DHT22;50739;45.670;11.936;2023-12-29T22:23:48;8.63;88.63
62476;DHT22;50739;45.670;11.936;2023-12-29T22:28:51;8.62;88.49
62476;DHT22;50739;45.670;11.936;2023-12-29T22:33:54;8.49;89.06
62476;DHT22;50739;45.670;11.936;2023-12-29T22:38:56;8.39;89.60
62476;DHT22;50739;45.670;11.936;2023-12-29T22:44:00;8.38;89.78
62476;DHT22;50739;45.670;11.936;2023-12-29T22:49:03;8.39;89.34
62476;DHT22;50739;45.670;11.936;2023-12-29T22:54:05;8.44;89.14
62476;DHT22;50739;45.670;11.936;2023-12-29T22:59:09;8.55;89.14
62476;DHT22;50739;45.670;11.936;2023-12-29T23:04:12;8.58;89.01
62476;DHT22;50739;45.670;11.936;2023-12-29T23:09:14;8.55;88.46
62476;DHT22;50739;45.670;11.936;2023-12-29T23:14:18;8.56;88.85
62476;DHT22;50739;45.670;11.936;2023-12-29T23:19:20;8.60;88.95
62476;DHT22;50739;45.670;11.936;2023-12-29T23:24:23;8.60;88.57
62476;DHT22;50739;45.670;11.936;2023-12-29T23:29:26;8.56;89.10
62476;DHT22;50739;45.670;11.936;2023-12-29T23:34:29;8.60;89.13
62476;DHT22;50739;45.670;11.936;2023-12-29T23:39:31;8.55;88.73
62476;DHT22;50739;45.670;11.936;2023-12-29T23:44:36;8.30;89.95
62476;DHT22;50739;45.670;11.936;2023-12-29T23:49:40;8.20;90.36
62476;DHT22;50739;45.670;11.936;2023-12-29T23:54:43;8.25;90.15
62476;DHT22;50739;45.670;11.936;2023-12-29T23:59:47;8.38;89.66
